Time;durP1;ratioP1;P1;durP2;ratioP2;P2;SDS_P1;SDS_P2;PMS_P1;PMS_P2;Temp;Humidity;BMP_temperature;BMP_pressure;BME280_temperature;BME280_humidity;BME280_pressure;Samples;Min_cycle;Max_cycle;Signal;HPM_P1;HPM_P2
2022/08/31 00:05:42;;;;;;;4.80;1.60;;;;;;;15.94;79.11;100915.48;88851;1268;94197;-60
2022/08/31 00:07:52;;;;;;;;;;;;;;;15.90;79.28;100912.45;88813;1269;80735;-59
2022/08/31 00:10:13;;;;;;;4.30;1.50;;;;;;;15.87;79.40;100913.18;88894;1269;81002;-59
2022/08/31 00:12:23;;;;;;;4.20;1.60;;;;;;;15.83;79.38;100916.11;88883;1269;99205;-58
2022/08/31 00:14:33;;;;;;;2.60;1.50;;;;;;;15.75;79.30;100918.01;88909;1268;87948;-60
2022/08/31 00:16:45;;;;;;;4.40;2.00;;;;;;;15.67;79.32;100915.66;88878;1268;94016;-59
2022/08/31 00:18:58;;;;;;;4.80;1.80;;;;;;;15.60;79.37;100916.79;88820;1269;79599;-60
2022/08/31 00:21:08;;;;;;;;;;;;;;;15.52;79.45;100919.80;88879;1269;81910;-59
2022/08/31 00:23:20;;;;;;;4.80;1.40;;;;;;;15.44;79.45;100919.38;88881;1268;99665;-60
2022/08/31 00:25:36;;;;;;;1.90;1.20;;;;;;;15.40;79.51;100917.67;88809;1269;87849;-59
2022/08/31 00:27:50;;;;;;;4.40;1.30;;;;;;;15.37;79.47;100919.34;88829;1269;93850;-58
2022/08/31 00:30:06;;;;;;;3.80;1.40;;;;;;;15.30;79.46;100918.66;88834;1269;81008;-59
2022/08/31 00:32:18;;;;;;;3.80;1.80;;;;;;;15.20;79.61;100920.96;88895;1268;81788;-59
2022/08/31 00:34:32;;;;;;;2.50;1.50;;;;;;;15.11;79.69;100922.73;88914;1269;98741;-58
2022/08/31 00:36:46;;;;;;;4.90;1.70;;;;;;;15.06;79.89;100926.94;88903;1269;88677;-60
2022/08/31 00:38:59;;;;;;;2.50;1.30;;;;;;;15.04;79.82;100930.08;88871;1268;93694;-59
2022/08/31 00:41:13;;;;;;;3.20;1.60;;;;;;;15.02;79.96;100928.63;88871;1269;80717;-59
2022/08/31 00:43:45;;;;;;;3.70;1.90;;;;;;;14.99;79.94;100927.26;88922;1269;80426;-59
2022/08/31 00:45:58;;;;;;;3.70;1.30;;;;;;;14.95;80.02;100928.17;88854;1269;99470;-60
2022/08/31 00:48:07;;;;;;;2.80;1.30;;;;;;;14.91;80.08;100928.73;88891;1269;88237;-59
2022/08/31 00:50:21;;;;;;;2.40;1.60;;;;;;;14.88;80.06;100934.52;88859;1269;94158;-59
2022/08/31 00:52:38;;;;;;;2.90;1.30;;;;;;;14.82;80.24;100930.21;88864;1269;80308;-60
2022/08/31 00:54:59;;;;;;;4.00;1.40;;;;;;;14.72;80.33;100932.41;88917;1269;81634;-59
2022/08/31 00:57:10;;;;;;;2.90;1.40;;;;;;;14.68;80.37;100929.51;88884;1269;98913;-60
2022/08/31 00:59:22;;;;;;;6.80;1.70;;;;;;;14.64;80.40;100931.48;88773;1270;86686;-61
2022/08/31 01:01:34;;;;;;;3.40;1.70;;;;;;;14.59;80.53;100933.02;88812;1268;93144;-60
2022/08/31 01:03:44;;;;;;;2.50;1.40;;;;;;;14.54;80.55;100933.29;88786;1269;80508;-60
2022/08/31 01:05:55;;;;;;;2.70;1.30;;;;;;;14.49;80.68;100932.88;88881;1268;80912;-59
2022/08/31 01:08:06;;;;;;;5.00;1.40;;;;;;;14.47;80.62;100933.96;88854;1266;98208;-59
2022/08/31 01:10:24;;;;;;;3.30;1.50;;;;;;;14.44;80.68;100931.81;88924;1269;88572;-59
2022/08/31 01:12:40;;;;;;;3.70;1.40;;;;;;;14.39;80.62;100929.45;88873;1268;92590;-58
2022/08/31 01:14:52;;;;;;;4.00;1.50;;;;;;;14.37;80.87;100927.55;88890;1269;79846;-60
2022/08/31 01:17:03;;;;;;;3.70;1.70;;;;;;;14.33;80.95;100932.73;88869;1269;82575;-60
2022/08/31 01:19:28;;;;;;;2.40;1.20;;;;;;;14.32;80.93;100931.04;88815;1269;98160;-59
2022/08/31 01:21:47;;;;;;;4.50;1.60;;;;;;;14.29;81.02;100932.04;88889;1269;88141;-59
2022/08/31 01:24:03;;;;;;;2.10;1.30;;;;;;;14.27;81.06;100933.48;88890;1269;95040;-58
2022/08/31 01:26:19;;;;;;;2.90;1.10;;;;;;;14.26;81.23;100935.27;88859;1269;80291;-61
2022/08/31 01:28:30;;;;;;;3.40;1.60;;;;;;;14.24;81.33;100937.02;88849;1269;81674;-60
2022/08/31 01:30:43;;;;;;;2.90;1.40;;;;;;;14.22;81.47;100938.69;88887;1269;96999;-58
2022/08/31 01:32:54;;;;;;;3.40;1.50;;;;;;;14.18;81.65;100935.94;88880;1269;87690;-58
2022/08/31 01:35:04;;;;;;;3.80;1.50;;;;;;;14.18;81.74;100934.94;88877;1269;94614;-60
2022/08/31 01:37:14;;;;;;;3.10;1.30;;;;;;;14.22;81.98;100936.17;88871;1269;80946;-60
2022/08/31 01:39:25;;;;;;;3.50;1.60;;;;;;;14.20;82.01;100933.83;88819;1269;81766;-59
2022/08/31 01:41:40;;;;;;;5.20;1.70;;;;;;;14.26;82.20;100933.65;88849;1269;97356;-61
2022/08/31 01:43:53;;;;;;;4.40;1.80;;;;;;;14.31;82.32;100930.64;88890;1269;86920;-60
2022/08/31 01:46:07;;;;;;;;;;;;;;;14.33;82.52;100932.80;88897;1269;93333;-60
2022/08/31 01:48:20;;;;;;;5.80;2.00;;;;;;;14.36;82.53;100930.69;88850;1269;80668;-60
2022/08/31 01:50:35;;;;;;;4.20;1.80;;;;;;;14.38;82.59;100928.27;88855;1269;80536;-62
2022/08/31 01:52:50;;;;;;;4.00;1.70;;;;;;;14.38;82.89;100927.77;88855;1269;97853;-61
2022/08/31 01:55:04;;;;;;;3.70;1.60;;;;;;;14.41;82.93;100926.77;88870;1270;88832;-59
2022/08/31 01:57:17;;;;;;;3.90;1.70;;;;;;;14.43;82.96;100924.16;88858;1269;94430;-60
2022/08/31 01:59:30;;;;;;;6.20;1.90;;;;;;;14.45;82.85;100922.84;88894;1269;80848;-59
2022/08/31 02:01:49;;;;;;;2.90;1.80;;;;;;;14.43;82.96;100925.25;88876;1269;80261;-60
2022/08/31 02:04:02;;;;;;;2.70;1.70;;;;;;;14.44;83.00;100922.88;88847;1269;98719;-58
2022/08/31 02:06:15;;;;;;;3.80;1.70;;;;;;;14.43;83.21;100922.27;88754;1270;87207;-62
2022/08/31 02:08:31;;;;;;;4.40;2.40;;;;;;;14.45;83.26;100921.65;88884;1269;93734;-61
2022/08/31 02:10:41;;;;;;;5.10;2.20;;;;;;;14.45;83.18;100921.16;88876;1269;81569;-59
2022/08/31 02:12:55;;;;;;;2.90;1.40;;;;;;;14.44;83.24;100925.16;88919;1269;81709;-61
2022/08/31 02:15:10;;;;;;;5.10;1.90;;;;;;;14.45;83.17;100923.11;88873;1269;98534;-59
2022/08/31 02:17:25;;;;;;;4.40;2.00;;;;;;;14.46;83.11;100921.74;88882;1269;86760;-59
2022/08/31 02:19:35;;;;;;;4.10;2.20;;;;;;;14.44;82.92;100922.31;88743;1270;94534;-61
2022/08/31 02:21:47;;;;;;;3.00;2.00;;;;;;;14.43;83.23;100917.84;88850;1269;80685;-59
2022/08/31 02:23:58;;;;;;;5.60;2.00;;;;;;;14.41;83.21;100920.13;88855;1269;80146;-58
2022/08/31 02:26:09;;;;;;;4.30;2.00;;;;;;;14.43;83.50;100922.95;88889;1269;97654;-60
2022/08/31 02:28:21;;;;;;;3.60;1.90;;;;;;;14.43;83.37;100917.17;88794;1270;87981;-60
2022/08/31 02:30:31;;;;;;;;;;;;;;;14.42;83.29;100918.96;88851;1269;95177;-59
2022/08/31 02:32:43;;;;;;;3.80;2.00;;;;;;;14.41;83.36;100915.79;88832;1269;80197;-59
2022/08/31 02:34:54;;;;;;;4.00;1.90;;;;;;;14.39;83.36;100915.10;88895;1269;82596;-60
2022/08/31 02:37:05;;;;;;;4.40;1.60;;;;;;;14.37;83.17;100918.98;88776;1270;97400;-60
2022/08/31 02:39:15;;;;;;;5.20;1.70;;;;;;;14.35;83.27;100920.98;88864;1269;88263;-61
2022/08/31 02:41:26;;;;;;;3.60;1.50;;;;;;;14.31;83.40;100919.41;88870;1269;95489;-61
2022/08/31 02:43:38;;;;;;;3.30;1.60;;;;;;;14.29;83.59;100918.95;88868;1269;81347;-60
2022/08/31 02:45:48;;;;;;;2.20;1.70;;;;;;;14.29;83.62;100921.80;88831;1270;82075;-60
2022/08/31 02:47:58;;;;;;;7.30;1.80;;;;;;;14.32;83.44;100918.52;88835;1269;99121;-61
2022/08/31 02:50:12;;;;;;;4.10;1.60;;;;;;;14.31;83.51;100913.65;88850;1269;87341;-61
2022/08/31 02:52:23;;;;;;;4.50;1.80;;;;;;;14.33;83.62;100913.23;88802;1269;94106;-61
2022/08/31 02:54:39;;;;;;;5.50;2.50;;;;;;;14.33;83.71;100912.99;88898;1269;80294;-61
2022/08/31 02:56:49;;;;;;;3.50;1.60;;;;;;;14.34;83.71;100914.79;88894;1271;80434;-59
2022/08/31 02:59:01;;;;;;;4.90;1.40;;;;;;;14.33;83.77;100919.50;88878;1269;99955;-60
2022/08/31 03:01:15;;;;;;;2.80;1.50;;;;;;;14.31;83.95;100920.50;88861;1269;87705;-58
2022/08/31 03:03:27;;;;;;;4.00;2.00;;;;;;;14.34;83.88;100922.09;88816;1270;95464;-59
2022/08/31 03:05:39;;;;;;;4.50;1.80;;;;;;;14.36;83.73;100922.54;88891;1269;79314;-59
2022/08/31 03:07:53;;;;;;;3.20;1.80;;;;;;;14.38;83.67;100921.33;88811;1270;82848;-58
2022/08/31 03:10:05;;;;;;;2.70;1.70;;;;;;;14.37;83.54;100920.20;88968;1267;99029;-59
2022/08/31 03:12:16;;;;;;;3.70;1.70;;;;;;;14.37;83.74;100920.73;88887;1269;87648;-60
2022/08/31 03:14:32;;;;;;;4.20;2.20;;;;;;;14.39;83.78;100919.66;88957;1267;92943;-60
2022/08/31 03:16:42;;;;;;;2.60;1.60;;;;;;;14.40;83.70;100924.89;88958;1267;80737;-59
2022/08/31 03:18:53;;;;;;;3.90;1.50;;;;;;;14.37;83.76;100922.28;88973;1267;82763;-59
2022/08/31 03:21:11;;;;;;;3.50;1.30;;;;;;;14.38;83.69;100929.40;88952;1267;99075;-60
2022/08/31 03:23:25;;;;;;;4.50;1.70;;;;;;;14.36;83.80;100929.39;89004;1267;87815;-61
2022/08/31 03:25:36;;;;;;;5.20;1.60;;;;;;;14.34;83.85;100927.68;88938;1268;94289;-61
2022/08/31 03:27:47;;;;;;;3.20;1.50;;;;;;;14.35;83.86;100928.67;88954;1267;80424;-60
2022/08/31 03:29:59;;;;;;;4.00;1.90;;;;;;;14.38;83.93;100929.16;89028;1267;81595;-61
2022/08/31 03:32:10;;;;;;;4.00;1.90;;;;;;;14.41;83.75;100929.70;88972;1267;98666;-59
2022/08/31 03:34:21;;;;;;;3.90;1.50;;;;;;;14.37;83.86;100928.89;88999;1267;88079;-61
2022/08/31 03:36:30;;;;;;;3.40;1.70;;;;;;;14.38;83.89;100928.95;88976;1267;94769;-61
2022/08/31 03:38:49;;;;;;;3.70;2.10;;;;;;;14.38;83.91;100930.82;88840;1268;80373;-61
2022/08/31 03:41:01;;;;;;;5.00;1.70;;;;;;;14.40;83.89;100933.67;89009;1269;80668;-61
2022/08/31 03:43:15;;;;;;;2.90;1.40;;;;;;;14.42;83.96;100935.86;88996;1272;99664;-61
2022/08/31 03:45:27;;;;;;;3.40;1.90;;;;;;;14.43;83.92;100939.59;88964;1267;87586;-60
2022/08/31 03:47:38;;;;;;;2.60;1.60;;;;;;;14.42;84.02;100939.84;88960;1267;93499;-59
2022/08/31 03:49:50;;;;;;;2.70;1.30;;;;;;;14.44;83.97;100940.52;88982;1269;80632;-59
2022/08/31 03:52:01;;;;;;;3.60;1.40;;;;;;;14.46;83.81;100944.04;89038;1267;81376;-59
2022/08/31 03:54:14;;;;;;;3.60;1.40;;;;;;;14.47;83.87;100943.00;88871;1268;98407;-59
2022/08/31 03:56:24;;;;;;;4.80;2.00;;;;;;;14.49;83.93;100944.92;88966;1267;88365;-58
2022/08/31 03:58:36;;;;;;;3.20;1.30;;;;;;;14.52;83.81;100946.91;88995;1267;94473;-59
2022/08/31 04:00:46;;;;;;;3.00;1.50;;;;;;;14.54;83.85;100945.53;89022;1267;81008;-59
2022/08/31 04:02:58;;;;;;;3.10;1.50;;;;;;;14.57;83.89;100944.89;89002;1267;82090;-59
2022/08/31 04:05:12;;;;;;;3.50;1.60;;;;;;;14.60;83.99;100944.65;88947;1267;99732;-60
2022/08/31 04:07:24;;;;;;;4.80;1.50;;;;;;;14.61;83.98;100942.52;88998;1267;88315;-61
2022/08/31 04:09:34;;;;;;;3.60;1.50;;;;;;;14.59;84.11;100940.60;88990;1267;92242;-60
2022/08/31 04:11:49;;;;;;;3.20;1.70;;;;;;;14.64;84.11;100940.66;88954;1267;80884;-61
2022/08/31 04:14:01;;;;;;;4.40;1.70;;;;;;;14.72;84.00;100944.41;88923;1267;80571;-60
2022/08/31 04:16:12;;;;;;;6.20;1.90;;;;;;;14.74;83.93;100946.26;88837;1270;99495;-60
2022/08/31 04:18:22;;;;;;;3.60;1.50;;;;;;;14.75;84.06;100942.08;88970;1267;86977;-60
2022/08/31 04:20:35;;;;;;;4.20;1.80;;;;;;;14.80;84.00;100946.52;88986;1267;95312;-59
2022/08/31 04:22:46;;;;;;;4.90;1.70;;;;;;;14.81;83.90;100943.41;88969;1267;80981;-61
2022/08/31 04:24:56;;;;;;;3.10;1.50;;;;;;;14.84;83.88;100949.14;88977;1267;80197;-60
2022/08/31 04:27:15;;;;;;;3.60;1.60;;;;;;;14.88;83.81;100953.17;89001;1267;99682;-61
2022/08/31 04:29:27;;;;;;;4.30;1.50;;;;;;;14.89;83.75;100953.93;88785;1269;87900;-58
2022/08/31 04:31:38;;;;;;;3.00;1.50;;;;;;;14.92;83.79;100958.04;89010;1267;92902;-59
2022/08/31 04:33:56;;;;;;;3.60;1.40;;;;;;;14.95;83.71;100956.39;88855;1269;79519;-58
2022/08/31 04:36:13;;;;;;;4.00;2.00;;;;;;;15.02;83.76;100959.05;88885;1268;83180;-59
2022/08/31 04:38:26;;;;;;;2.70;1.50;;;;;;;15.06;83.67;100961.81;88850;1270;96839;-58
2022/08/31 04:40:38;;;;;;;4.10;1.40;;;;;;;15.10;83.67;100966.36;88849;1270;88827;-59
2022/08/31 04:42:59;;;;;;;3.20;2.20;;;;;;;15.12;83.65;100970.13;88911;1268;94107;-61
2022/08/31 04:45:11;;;;;;;5.70;1.80;;;;;;;15.16;83.68;100969.10;88973;1267;81049;-59
2022/08/31 04:47:22;;;;;;;3.30;1.50;;;;;;;15.24;83.63;100973.21;88992;1267;83081;-59
2022/08/31 04:49:32;;;;;;;3.30;1.50;;;;;;;15.30;83.61;100974.58;88988;1267;97808;-60
2022/08/31 04:51:42;;;;;;;3.80;1.40;;;;;;;15.34;83.52;100970.11;88954;1267;87991;-59
2022/08/31 04:53:54;;;;;;;3.50;1.60;;;;;;;15.36;83.54;100969.59;89010;1267;92562;-60
2022/08/31 04:56:13;;;;;;;4.20;1.70;;;;;;;15.37;83.58;100970.78;88971;1267;81516;-60
2022/08/31 04:58:23;;;;;;;2.70;1.50;;;;;;;15.41;83.41;100975.55;88998;1267;81444;-60
2022/08/31 05:00:37;;;;;;;3.40;1.50;;;;;;;15.44;83.40;100976.36;89009;1267;98701;-58
2022/08/31 05:02:49;;;;;;;4.20;1.70;;;;;;;15.50;83.29;100982.48;88995;1267;88652;-59
2022/08/31 05:05:00;;;;;;;3.00;1.40;;;;;;;15.57;83.44;100978.59;88993;1267;94903;-61
2022/08/31 05:07:14;;;;;;;5.00;1.60;;;;;;;15.66;83.32;100977.55;89005;1267;81217;-61
2022/08/31 05:09:26;;;;;;;4.10;1.40;;;;;;;15.72;83.24;100978.20;88993;1267;80550;-60
2022/08/31 05:11:39;;;;;;;6.00;1.80;;;;;;;15.84;83.11;100974.51;88978;1267;99628;-59
2022/08/31 05:13:52;;;;;;;3.50;1.40;;;;;;;15.94;82.99;100973.99;89029;1267;89147;-59
2022/08/31 05:16:08;;;;;;;3.60;1.50;;;;;;;16.07;82.88;100976.92;89027;1267;93207;-59
2022/08/31 05:18:21;;;;;;;3.20;1.60;;;;;;;16.19;82.86;100979.46;88988;1267;80816;-59
2022/08/31 05:20:31;;;;;;;4.80;1.60;;;;;;;16.31;82.67;100977.35;88888;1269;81526;-59
2022/08/31 05:22:41;;;;;;;3.30;1.50;;;;;;;16.38;82.55;100975.33;88802;1269;101118;-59
2022/08/31 05:24:53;;;;;;;2.20;1.30;;;;;;;16.47;82.24;100980.92;88895;1269;85800;-60
2022/08/31 05:27:08;;;;;;;5.10;1.70;;;;;;;16.63;82.10;100982.17;88845;1269;95162;-59
2022/08/31 05:29:21;;;;;;;3.30;1.40;;;;;;;16.78;81.81;100983.14;88899;1267;80677;-60
2022/08/31 05:31:35;;;;;;;3.40;1.40;;;;;;;16.95;81.50;100988.95;89050;1267;80874;-60
2022/08/31 05:33:47;;;;;;;2.30;1.20;;;;;;;17.11;81.39;100986.01;88993;1267;98728;-61
2022/08/31 05:36:03;;;;;;;4.40;2.00;;;;;;;17.22;80.86;100989.02;89050;1267;86863;-59
2022/08/31 05:38:16;;;;;;;3.40;1.30;;;;;;;17.35;80.65;100990.05;88978;1267;93072;-59
2022/08/31 05:40:29;;;;;;;2.70;1.50;;;;;;;17.67;80.16;100989.10;89061;1267;79220;-60
2022/08/31 05:42:41;;;;;;;5.40;1.30;;;;;;;17.98;79.50;100988.63;89021;1267;80451;-59
2022/08/31 05:44:51;;;;;;;4.80;1.60;;;;;;;18.31;79.26;100993.15;88872;1269;97200;-61
2022/08/31 05:47:05;;;;;;;5.00;1.30;;;;;;;18.92;79.34;100991.31;89038;1267;87049;-61
2022/08/31 05:49:16;;;;;;;4.10;1.40;;;;;;;19.40;78.10;100991.80;88954;1267;93270;-60
2022/08/31 05:51:31;;;;;;;2.00;1.00;;;;;;;19.29;77.45;100991.64;89054;1267;79390;-60
2022/08/31 05:53:42;;;;;;;4.70;1.40;;;;;;;19.69;77.13;100996.06;89019;1267;81024;-60
2022/08/31 05:56:01;;;;;;;4.00;1.40;;;;;;;19.74;76.20;100994.52;89055;1267;98063;-60
2022/08/31 05:58:12;;;;;;;6.30;2.20;;;;;;;19.94;75.82;100988.45;88998;1267;88488;-60
2022/08/31 06:00:24;;;;;;;3.70;1.60;;;;;;;20.65;75.36;100995.02;88985;1267;94813;-60
2022/08/31 06:02:35;;;;;;;4.20;1.10;;;;;;;21.02;74.01;100999.70;88973;1267;80132;-59
2022/08/31 06:04:47;;;;;;;2.70;1.40;;;;;;;21.23;73.13;100998.01;88989;1267;81330;-60
2022/08/31 06:06:59;;;;;;;4.00;1.80;;;;;;;21.34;72.11;101004.92;89006;1267;98627;-60
2022/08/31 06:09:10;;;;;;;2.20;1.10;;;;;;;21.15;71.25;101008.34;89048;1267;85725;-59
2022/08/31 06:11:28;;;;;;;2.40;1.40;;;;;;;21.02;70.80;101014.58;88995;1267;94295;-60
2022/08/31 06:13:44;;;;;;;3.40;1.30;;;;;;;21.03;70.45;101014.77;88998;1267;78548;-59
2022/08/31 06:15:57;;;;;;;3.20;1.30;;;;;;;20.94;69.74;101019.55;88805;1269;81691;-60
2022/08/31 06:18:12;;;;;;;2.60;1.50;;;;;;;20.77;69.54;101026.23;88992;1267;98790;-61
2022/08/31 06:20:21;;;;;;;3.60;1.20;;;;;;;20.42;69.46;101024.65;89004;1267;88771;-62
2022/08/31 06:22:36;;;;;;;3.80;1.40;;;;;;;20.17;69.40;101027.48;88983;1267;95027;-61
2022/08/31 06:24:47;;;;;;;4.10;1.50;;;;;;;19.97;69.23;101026.80;89011;1267;80353;-60
2022/08/31 06:27:04;;;;;;;2.10;1.20;;;;;;;20.01;69.45;101025.83;88989;1267;79972;-59
2022/08/31 06:29:15;;;;;;;2.10;1.00;;;;;;;20.31;69.19;101028.05;89004;1267;98434;-62
2022/08/31 06:31:29;;;;;;;2.70;1.20;;;;;;;20.71;69.00;101025.50;89062;1267;88587;-60
2022/08/31 06:33:41;;;;;;;2.40;1.10;;;;;;;20.92;68.40;101025.73;89012;1267;92791;-60
2022/08/31 06:35:52;;;;;;;5.10;1.40;;;;;;;20.85;68.13;101025.74;88518;1267;78065;-63
2022/08/31 06:38:01;;;;;;;2.10;1.10;;;;;;;21.23;67.77;101027.34;89025;1267;79413;-64
2022/08/31 06:40:13;;;;;;;3.40;1.80;;;;;;;21.85;67.53;101024.04;88985;1267;99348;-62
2022/08/31 06:42:24;;;;;;;4.50;1.50;;;;;;;23.01;66.63;101019.81;88974;1267;87499;-62
2022/08/31 06:44:44;;;;;;;4.70;1.30;;;;;;;23.31;65.02;101021.82;88848;1270;95033;-61
2022/08/31 06:47:01;;;;;;;3.20;1.50;;;;;;;22.53;64.94;101022.61;89023;1267;78105;-62
2022/08/31 06:49:13;;;;;;;6.10;1.50;;;;;;;22.20;64.41;101024.29;89029;1267;81626;-61
2022/08/31 06:51:27;;;;;;;2.50;1.30;;;;;;;22.16;64.56;101023.93;88789;1269;97278;-62
2022/08/31 06:53:39;;;;;;;3.80;1.20;;;;;;;22.37;63.83;101019.89;89050;1267;88196;-61
2022/08/31 06:55:51;;;;;;;2.50;1.10;;;;;;;22.46;63.13;101015.49;89034;1267;94613;-62
2022/08/31 06:58:03;;;;;;;2.80;1.30;;;;;;;22.32;63.37;101012.38;89028;1267;78138;-62
2022/08/31 07:00:16;;;;;;;4.20;1.40;;;;;;;22.28;63.07;101011.04;88822;1269;82885;-59
2022/08/31 07:02:27;;;;;;;2.80;1.20;;;;;;;22.36;62.82;101014.18;88868;1270;97306;-61
2022/08/31 07:04:45;;;;;;;3.30;1.10;;;;;;;22.60;62.56;101015.11;88838;1269;87651;-61
2022/08/31 07:07:11;;;;;;;3.70;1.40;;;;;;;22.66;61.94;101017.80;88839;1269;94005;-60
2022/08/31 07:09:25;;;;;;;6.90;1.70;;;;;;;23.05;61.76;101017.06;88855;1269;78314;-61
2022/08/31 07:11:39;;;;;;;6.70;1.30;;;;;;;24.31;60.87;101014.54;88843;1269;80256;-63
2022/08/31 07:13:58;;;;;;;3.00;1.60;;;;;;;24.03;59.89;101012.76;88857;1269;97206;-63
2022/08/31 07:16:19;;;;;;;1.90;1.00;;;;;;;23.97;59.26;101012.38;88860;1269;87301;-61
2022/08/31 07:18:30;;;;;;;2.70;0.90;;;;;;;24.25;58.47;101013.95;88852;1269;94234;-59
2022/08/31 07:20:43;;;;;;;2.70;1.40;;;;;;;24.08;57.75;101018.86;88853;1269;78924;-61
2022/08/31 07:23:14;;;;;;;1.50;0.70;;;;;;;24.12;57.75;101017.97;88890;1269;81616;-63
2022/08/31 07:25:28;;;;;;;2.00;0.80;;;;;;;24.76;56.98;101018.23;88854;1269;97202;-63
2022/08/31 07:27:43;;;;;;;2.10;1.10;;;;;;;25.18;56.43;101018.34;88873;1269;87007;-63
2022/08/31 07:29:59;;;;;;;3.90;1.10;;;;;;;26.07;55.72;101011.18;88916;1268;95096;-62
2022/08/31 07:32:16;;;;;;;2.40;1.00;;;;;;;26.62;53.99;101011.72;88873;1269;78273;-61
2022/08/31 07:34:30;;;;;;;3.70;0.80;;;;;;;26.37;53.48;101011.77;88871;1269;81732;-60
2022/08/31 07:44:12;;;;;;;3.70;1.00;;;;;;;26.39;50.86;101020.86;88832;1269;79187;-59
2022/08/31 07:46:22;;;;;;;2.40;0.80;;;;;;;26.92;50.93;101016.43;88845;1267;81965;-60
2022/08/31 07:48:36;;;;;;;2.20;1.00;;;;;;;27.36;50.42;101017.27;88819;1269;99373;-59
2022/08/31 07:50:46;;;;;;;2.50;1.10;;;;;;;28.19;49.86;101011.11;88890;1269;87746;-60
2022/08/31 07:52:59;;;;;;;1.80;0.90;;;;;;;29.13;48.76;101013.20;88820;1268;95130;-62
2022/08/31 07:55:11;;;;;;;2.20;0.90;;;;;;;29.82;47.31;101017.12;88822;1269;79444;-60
2022/08/31 07:57:25;;;;;;;1.50;0.80;;;;;;;30.73;46.85;101011.77;88842;1268;81711;-60
2022/08/31 07:59:38;;;;;;;5.40;1.30;;;;;;;31.23;45.71;101016.98;88862;1269;99713;-60
2022/08/31 08:01:54;;;;;;;6.00;1.40;;;;;;;31.77;44.86;101007.52;88823;1269;87555;-60
2022/08/31 08:04:08;;;;;;;3.10;1.00;;;;;;;31.82;43.82;101008.23;88836;1269;93242;-59
2022/08/31 08:06:24;;;;;;;1.30;1.00;;;;;;;31.85;43.52;101007.83;88871;1269;80516;-58
2022/08/31 08:08:36;;;;;;;1.90;0.90;;;;;;;32.08;43.01;101009.95;88873;1269;82785;-60
2022/08/31 08:10:48;;;;;;;2.80;1.00;;;;;;;32.07;42.31;101015.48;88862;1269;97294;-61
2022/08/31 08:13:12;;;;;;;1.40;0.90;;;;;;;32.11;41.07;101015.59;88877;1269;87295;-61
2022/08/31 08:15:25;;;;;;;2.20;0.90;;;;;;;32.04;40.01;101014.46;88794;1270;92371;-60
2022/08/31 08:17:40;;;;;;;2.10;0.70;;;;;;;31.64;39.99;101015.20;88857;1268;79054;-61
2022/08/31 08:19:48;;;;;;;;;;;;;;;31.98;39.72;101021.83;88853;1268;80315;-60
2022/08/31 08:22:04;;;;;;;1.10;0.80;;;;;;;31.85;39.30;101022.38;88873;1269;99773;-61
2022/08/31 08:24:17;;;;;;;1.50;0.70;;;;;;;32.10;38.81;101023.14;88845;1269;89146;-60
2022/08/31 08:26:33;;;;;;;2.50;0.80;;;;;;;32.25;38.56;101026.73;88862;1269;93261;-61
2022/08/31 08:28:52;;;;;;;2.70;0.70;;;;;;;32.63;38.33;101030.15;88841;1269;78169;-59
2022/08/31 08:31:12;;;;;;;4.30;1.20;;;;;;;33.05;36.55;101030.54;88851;1269;82408;-61
2022/08/31 08:33:29;;;;;;;0.80;0.60;;;;;;;33.00;36.48;101030.12;88831;1261;99206;-60
2022/08/31 08:35:41;;;;;;;1.30;0.70;;;;;;;32.89;36.00;101030.44;88888;1269;86856;-60
2022/08/31 08:37:52;;;;;;;1.50;0.60;;;;;;;32.66;35.33;101031.56;88767;1270;94545;-59
2022/08/31 08:40:15;;;;;;;1.40;0.70;;;;;;;32.51;35.34;101028.11;88848;1268;79235;-60
2022/08/31 08:42:59;;;;;;;2.20;0.90;;;;;;;32.55;34.99;101032.35;88886;1268;80864;-59
2022/08/31 08:49:44;;;;;;;2.60;0.90;;;;;;;32.87;33.80;101026.34;88975;1267;83973;-59
2022/08/31 08:52:21;;;;;;;2.90;0.80;;;;;;;32.36;33.49;101033.47;88866;1269;93722;-59
2022/08/31 08:54:52;;;;;;;2.00;0.80;;;;;;;31.53;33.93;101033.55;88884;1269;79052;-57
2022/08/31 08:57:22;;;;;;;1.00;0.70;;;;;;;31.38;34.04;101032.73;88856;1269;82645;-59
2022/08/31 08:59:42;;;;;;;1.70;0.70;;;;;;;31.74;33.65;101027.60;88866;1269;98145;-60
2022/08/31 09:02:05;;;;;;;1.20;0.80;;;;;;;31.82;33.34;101029.91;88894;1269;87379;-57
2022/08/31 09:04:49;;;;;;;1.30;0.80;;;;;;;31.76;32.82;101026.44;88836;1268;94442;-59
2022/08/31 09:07:33;;;;;;;1.30;0.70;;;;;;;31.68;31.20;101029.27;88633;1272;78554;-57
2022/08/31 09:10:04;;;;;;;4.40;1.00;;;;;;;31.20;32.13;101032.63;88842;1269;79973;-58
2022/08/31 09:12:50;;;;;;;1.10;0.60;;;;;;;31.29;32.09;101036.40;88857;1269;99981;-59
2022/08/31 09:15:57;;;;;;;0.80;0.60;;;;;;;31.29;32.36;101036.19;88842;1269;86684;-59
2022/08/31 09:18:39;;;;;;;2.30;0.70;;;;;;;31.66;32.37;101038.34;88843;1269;94384;-60
2022/08/31 09:21:21;;;;;;;1.20;0.70;;;;;;;31.38;31.55;101038.27;88874;1269;79833;-59
2022/08/31 09:23:47;;;;;;;2.20;0.80;;;;;;;30.91;31.99;101034.70;88855;1269;81662;-59
2022/08/31 09:26:03;;;;;;;2.20;0.80;;;;;;;30.89;32.44;101038.64;88878;1268;98623;-59
2022/08/31 09:28:18;;;;;;;2.70;0.90;;;;;;;30.33;32.23;101035.47;88879;1269;87394;-59
2022/08/31 09:30:54;;;;;;;4.40;1.00;;;;;;;29.68;32.38;101037.20;88862;1268;93500;-60
2022/08/31 09:33:08;;;;;;;;;;;;;;;29.73;32.18;101035.54;88858;1269;78920;-59
2022/08/31 09:35:39;;;;;;;2.40;0.80;;;;;;;29.24;32.27;101030.95;88858;1262;81586;-59
2022/08/31 09:38:00;;;;;;;1.30;0.80;;;;;;;28.84;32.65;101031.41;88870;1267;98479;-58
2022/08/31 09:40:37;;;;;;;7.50;2.10;;;;;;;28.66;33.72;101026.48;88870;1269;87888;-59
2022/08/31 09:43:03;;;;;;;19.60;4.30;;;;;;;28.69;33.36;101020.34;88832;1269;94525;-59
2022/08/31 09:45:28;;;;;;;5.00;1.50;;;;;;;28.31;33.72;101022.86;88858;1269;78324;-59
2022/08/31 09:47:51;;;;;;;2.50;0.90;;;;;;;27.75;33.95;101023.94;88793;1270;82155;-59
2022/08/31 09:50:35;;;;;;;2.00;0.80;;;;;;;27.09;33.85;101023.41;88841;1267;99360;-59
2022/08/31 09:55:32;;;;;;;0.90;0.50;;;;;;;26.37;34.61;101025.73;88483;1273;94313;-59
2022/08/31 09:57:56;;;;;;;1.10;0.70;;;;;;;26.16;34.93;101028.17;88684;1269;80466;-58
2022/08/31 10:00:13;;;;;;;3.10;0.60;;;;;;;26.19;35.19;101025.85;88851;1269;82660;-59
2022/08/31 10:02:37;;;;;;;1.00;0.50;;;;;;;25.96;35.13;101023.88;88858;1269;98996;-57
2022/08/31 10:05:05;;;;;;;1.00;0.70;;;;;;;25.55;35.17;101027.67;88850;1269;87973;-58
2022/08/31 10:07:36;;;;;;;4.50;0.90;;;;;;;25.43;35.09;101025.20;88806;1269;94677;-58
2022/08/31 10:09:49;;;;;;;3.00;0.80;;;;;;;25.48;35.12;101024.27;88812;1269;78812;-59
2022/08/31 10:12:11;;;;;;;1.10;0.50;;;;;;;25.75;35.51;101024.73;88802;1269;80807;-57
2022/08/31 10:14:34;;;;;;;4.90;1.10;;;;;;;25.97;35.44;101021.33;88834;1269;97205;-58
2022/08/31 10:16:48;;;;;;;5.40;1.20;;;;;;;26.14;35.69;101015.53;88893;1269;88588;-59
2022/08/31 10:19:05;;;;;;;2.60;0.80;;;;;;;26.29;35.38;101016.33;88873;1269;95048;-59
2022/08/31 10:21:25;;;;;;;1.10;0.60;;;;;;;26.06;35.20;101019.29;88839;1269;80575;-59
2022/08/31 10:23:52;;;;;;;0.70;0.50;;;;;;;25.94;35.07;101016.01;88828;1269;81532;-58
2022/08/31 10:26:16;;;;;;;2.60;0.60;;;;;;;25.87;34.64;101011.07;88890;1268;97871;-58
2022/08/31 10:28:36;;;;;;;2.60;0.90;;;;;;;25.71;34.78;101007.07;88848;1269;86653;-58
2022/08/31 10:31:03;;;;;;;1.50;0.70;;;;;;;25.75;34.47;101012.39;88822;1269;96004;-58
2022/08/31 10:33:20;;;;;;;5.80;1.30;;;;;;;25.48;34.13;101009.17;88839;1269;77769;-58
2022/08/31 10:35:43;;;;;;;1.50;0.80;;;;;;;25.42;34.15;101012.02;88811;1269;80381;-58
2022/08/31 10:38:07;;;;;;;2.60;0.70;;;;;;;25.55;33.91;101010.64;88821;1269;98088;-58
2022/08/31 10:40:28;;;;;;;1.70;0.70;;;;;;;25.44;33.24;101006.31;88839;1269;88245;-58
2022/08/31 10:42:43;;;;;;;2.50;1.00;;;;;;;24.89;34.51;101006.04;88837;1269;92185;-58
2022/08/31 10:45:03;;;;;;;4.20;0.90;;;;;;;24.66;35.10;101004.85;88861;1269;80765;-58
2022/08/31 10:47:22;;;;;;;3.90;0.80;;;;;;;24.36;35.64;101000.45;88886;1269;81297;-60
2022/08/31 10:49:34;;;;;;;4.80;0.80;;;;;;;23.95;36.02;100998.39;88890;1268;98568;-58
2022/08/31 10:52:00;;;;;;;2.20;0.70;;;;;;;23.93;36.08;100998.86;88872;1269;86171;-59